Time;durP1;ratioP1;P1;durP2;ratioP2;P2;SDS_P1;SDS_P2;PMS_P1;PMS_P2;Temp;Humidity;BMP_temperature;BMP_pressure;BME280_temperature;BME280_humidity;BME280_pressure;Samples;Min_cycle;Max_cycle;Signal;HPM_P1;HPM_P2
2023/07/28 00:01:14;;;;;;;0.73;0.73;;;;;;;;;;5047997;28;20029;-79
2023/07/28 00:03:40;;;;;;;0.68;0.68;;;;;;;;;;5048150;28;20044;-78
2023/07/28 00:06:06;;;;;;;0.70;0.70;;;;;;;;;;5048202;28;20030;-79
2023/07/28 00:08:32;;;;;;;0.88;0.88;;;;;;;;;;5047871;28;20052;-78
2023/07/28 00:10:58;;;;;;;0.50;0.50;;;;;;;;;;5047238;28;20030;-78
2023/07/28 00:13:24;;;;;;;0.60;0.60;;;;;;;;;;5043598;28;20026;-78
2023/07/28 00:15:50;;;;;;;0.68;0.68;;;;;;;;;;5049487;28;20041;-79
2023/07/28 00:18:18;;;;;;;0.65;0.65;;;;;;;;;;5048599;28;20037;-79
2023/07/28 00:20:44;;;;;;;0.73;0.73;;;;;;;;;;5048057;28;20092;-80
2023/07/28 00:23:10;;;;;;;0.60;0.60;;;;;;;;;;5049032;28;20030;-81
2023/07/28 00:25:37;;;;;;;0.60;0.60;;;;;;;;;;5047633;28;20045;-78
2023/07/28 00:28:03;;;;;;;0.63;0.63;;;;;;;;;;5048734;28;20107;-78
2023/07/28 00:30:31;;;;;;;0.47;0.47;;;;;;;;;;5049741;28;20026;-78
2023/07/28 00:32:57;;;;;;;0.50;0.50;;;;;;;;;;5049533;28;20026;-78
2023/07/28 00:35:23;;;;;;;0.57;0.57;;;;;;;;;;5042347;28;20085;-78
2023/07/28 00:37:49;;;;;;;0.80;0.80;;;;;;;;;;5049109;28;20047;-77
2023/07/28 00:40:15;;;;;;;0.80;0.80;;;;;;;;;;5047725;28;20037;-78
2023/07/28 00:42:41;;;;;;;1.05;1.02;;;;;;;;;;5048592;28;20086;-78
2023/07/28 00:45:07;;;;;;;1.10;0.98;;;;;;;;;;5048754;28;20029;-78
2023/07/28 00:47:33;;;;;;;1.23;1.13;;;;;;;;;;5049042;28;20025;-77
2023/07/28 00:50:00;;;;;;;1.42;1.33;;;;;;;;;;5048515;28;20033;-78
2023/07/28 00:52:26;;;;;;;1.20;1.10;;;;;;;;;;5048815;28;20022;-79
2023/07/28 00:54:52;;;;;;;1.05;1.05;;;;;;;;;;5048096;28;20413;-78
2023/07/28 00:57:18;;;;;;;1.20;1.13;;;;;;;;;;5048923;28;20026;-76
2023/07/28 00:59:46;;;;;;;1.60;1.50;;;;;;;;;;5049104;28;20033;-77
2023/07/28 01:02:12;;;;;;;1.58;1.42;;;;;;;;;;5053041;28;20533;-79
2023/07/28 01:04:38;;;;;;;1.73;1.63;;;;;;;;;;5051827;28;20146;-80
2023/07/28 01:07:10;;;;;;;1.70;1.60;;;;;;;;;;5050643;28;20040;-79
2023/07/28 01:09:53;;;;;;;1.30;1.20;;;;;;;;;;5052325;28;20032;-78
2023/07/28 01:12:20;;;;;;;1.42;1.33;;;;;;;;;;5056541;28;20044;-77
2023/07/28 01:14:46;;;;;;;1.40;1.27;;;;;;;;;;5053102;28;20018;-77
2023/07/28 01:17:12;;;;;;;1.10;1.10;;;;;;;;;;5046481;28;20551;-76
2023/07/28 01:19:38;;;;;;;1.30;1.20;;;;;;;;;;5039950;28;20017;-78
2023/07/28 01:22:23;;;;;;;1.50;1.40;;;;;;;;;;5047726;28;20398;-78
2023/07/28 01:24:56;;;;;;;1.38;1.27;;;;;;;;;;5045777;28;20044;-79
2023/07/28 01:27:23;;;;;;;1.70;1.60;;;;;;;;;;5046222;28;20085;-78
2023/07/28 01:29:49;;;;;;;1.17;1.13;;;;;;;;;;5046533;28;20032;-79
2023/07/28 01:32:15;;;;;;;1.38;0.90;;;;;;;;;;5047781;28;20083;-78
2023/07/28 01:34:41;;;;;;;1.40;1.30;;;;;;;;;;5046009;28;20021;-80
2023/07/28 01:37:07;;;;;;;1.40;1.30;;;;;;;;;;5046981;28;20140;-79
2023/07/28 01:39:33;;;;;;;0.90;0.90;;;;;;;;;;5046158;28;20025;-79
2023/07/28 01:41:59;;;;;;;1.58;1.48;;;;;;;;;;5046194;28;20037;-79
2023/07/28 01:44:25;;;;;;;1.60;1.50;;;;;;;;;;5045756;28;20029;-80
2023/07/28 01:46:51;;;;;;;1.33;1.30;;;;;;;;;;5046354;28;20017;-78
2023/07/28 01:49:17;;;;;;;1.45;1.35;;;;;;;;;;5045744;28;20029;-79
2023/07/28 01:51:44;;;;;;;1.05;1.00;;;;;;;;;;5045029;28;20097;-78
2023/07/28 01:54:10;;;;;;;1.40;1.30;;;;;;;;;;5045653;28;20029;-80
2023/07/28 01:56:36;;;;;;;1.20;1.10;;;;;;;;;;5044954;28;20044;-79
2023/07/28 01:59:02;;;;;;;1.05;0.95;;;;;;;;;;5037606;28;20041;-77
2023/07/28 02:01:28;;;;;;;1.83;1.73;;;;;;;;;;5047975;28;20080;-77
2023/07/28 02:03:54;;;;;;;1.30;1.20;;;;;;;;;;5056883;28;20021;-77
2023/07/28 02:06:20;;;;;;;1.02;0.93;;;;;;;;;;5056621;28;20085;-77
2023/07/28 02:08:46;;;;;;;1.00;1.00;;;;;;;;;;5055667;28;20041;-77
2023/07/28 02:11:12;;;;;;;1.15;1.05;;;;;;;;;;5046160;28;20036;-79
2023/07/28 02:13:38;;;;;;;1.00;1.00;;;;;;;;;;5050730;28;20041;-79
2023/07/28 02:16:05;;;;;;;1.30;1.20;;;;;;;;;;5045258;28;20355;-79
2023/07/28 02:18:31;;;;;;;1.60;1.27;;;;;;;;;;5046146;28;20082;-78
2023/07/28 02:20:57;;;;;;;1.58;1.20;;;;;;;;;;5045674;28;20037;-80
2023/07/28 02:23:23;;;;;;;1.13;1.13;;;;;;;;;;5046642;28;20028;-80
2023/07/28 02:25:49;;;;;;;1.27;1.17;;;;;;;;;;5046667;28;20018;-80
2023/07/28 02:28:15;;;;;;;1.55;1.25;;;;;;;;;;5048083;28;20060;-80
2023/07/28 02:30:41;;;;;;;1.70;1.60;;;;;;;;;;5045755;28;20030;-79
2023/07/28 02:33:07;;;;;;;1.60;1.40;;;;;;;;;;5045865;28;20021;-80
2023/07/28 02:35:33;;;;;;;1.58;1.48;;;;;;;;;;5047169;28;20407;-80
2023/07/28 02:37:59;;;;;;;1.40;1.30;;;;;;;;;;5049198;28;20030;-79
2023/07/28 02:40:25;;;;;;;1.70;1.60;;;;;;;;;;5054997;28;20052;-79
2023/07/28 02:42:53;;;;;;;1.58;1.48;;;;;;;;;;5055347;28;20029;-77
2023/07/28 02:45:19;;;;;;;1.40;1.30;;;;;;;;;;5055527;28;20010;-77
2023/07/28 02:47:45;;;;;;;1.40;1.27;;;;;;;;;;5055807;28;20029;-77
2023/07/28 02:50:11;;;;;;;1.10;1.10;;;;;;;;;;5056092;28;20021;-78
2023/07/28 02:52:37;;;;;;;1.10;1.05;;;;;;;;;;5056312;28;20022;-77
2023/07/28 02:55:03;;;;;;;1.13;1.02;;;;;;;;;;5055441;28;20502;-79
2023/07/28 02:57:30;;;;;;;1.35;1.25;;;;;;;;;;5053987;28;20102;-79
2023/07/28 02:59:56;;;;;;;1.00;1.00;;;;;;;;;;5054926;28;20033;-77
2023/07/28 03:02:22;;;;;;;1.58;1.40;;;;;;;;;;5053515;28;20033;-79
2023/07/28 03:04:48;;;;;;;1.20;1.10;;;;;;;;;;5054433;28;20025;-78
2023/07/28 03:07:14;;;;;;;1.25;1.15;;;;;;;;;;5052947;28;20049;-79
2023/07/28 03:09:40;;;;;;;1.33;1.23;;;;;;;;;;5054728;28;20044;-76
2023/07/28 03:12:06;;;;;;;0.98;0.98;;;;;;;;;;5054370;28;20045;-78
2023/07/28 03:14:33;;;;;;;1.20;1.10;;;;;;;;;;5054320;28;20029;-77
2023/07/28 03:16:59;;;;;;;1.20;1.10;;;;;;;;;;5055446;28;20017;-78
2023/07/28 03:19:25;;;;;;;1.42;1.33;;;;;;;;;;5055110;28;20089;-77
2023/07/28 03:21:51;;;;;;;1.25;1.15;;;;;;;;;;5051187;28;20045;-78
2023/07/28 03:24:17;;;;;;;0.90;0.90;;;;;;;;;;5050708;28;20033;-78
2023/07/28 03:26:43;;;;;;;1.35;1.25;;;;;;;;;;5049302;28;20099;-79
2023/07/28 03:29:09;;;;;;;0.90;0.90;;;;;;;;;;5048890;28;20032;-78
2023/07/28 03:31:35;;;;;;;0.93;0.93;;;;;;;;;;5050685;28;20037;-79
2023/07/28 03:34:02;;;;;;;1.00;1.00;;;;;;;;;;5046267;28;20021;-78
2023/07/28 03:36:28;;;;;;;1.17;1.08;;;;;;;;;;5049484;28;20022;-78
2023/07/28 03:38:54;;;;;;;0.90;0.90;;;;;;;;;;5053437;28;20029;-78
2023/07/28 03:41:21;;;;;;;0.80;0.80;;;;;;;;;;5053523;28;20026;-78
2023/07/28 03:43:47;;;;;;;1.00;1.00;;;;;;;;;;5054251;28;20056;-77
2023/07/28 03:46:13;;;;;;;1.08;0.98;;;;;;;;;;5054440;28;20029;-79
2023/07/28 03:48:39;;;;;;;1.00;0.90;;;;;;;;;;5053265;28;20038;-79
2023/07/28 03:51:05;;;;;;;1.38;1.27;;;;;;;;;;5048624;28;20097;-79
2023/07/28 03:53:31;;;;;;;1.20;1.10;;;;;;;;;;5048625;28;20021;-79
2023/07/28 03:55:58;;;;;;;1.08;0.98;;;;;;;;;;5044385;28;20040;-79
2023/07/28 03:58:27;;;;;;;0.90;0.90;;;;;;;;;;5044621;28;20040;-78
2023/07/28 04:00:53;;;;;;;0.90;0.90;;;;;;;;;;5044387;28;20030;-78
2023/07/28 04:03:19;;;;;;;1.30;1.20;;;;;;;;;;5045035;28;20026;-78
2023/07/28 04:05:45;;;;;;;1.10;1.10;;;;;;;;;;5044849;28;20013;-79
2023/07/28 04:08:11;;;;;;;1.10;1.00;;;;;;;;;;5045907;28;20032;-80
2023/07/28 04:10:37;;;;;;;1.20;1.10;;;;;;;;;;5047359;28;20044;-78
2023/07/28 04:13:03;;;;;;;0.95;0.95;;;;;;;;;;5054829;28;20032;-77
2023/07/28 04:15:30;;;;;;;1.17;0.90;;;;;;;;;;5055223;28;20034;-77
2023/07/28 04:17:56;;;;;;;1.00;1.00;;;;;;;;;;5049688;28;20038;-80
2023/07/28 04:20:22;;;;;;;0.90;0.90;;;;;;;;;;5043169;28;20030;-82
2023/07/28 04:22:48;;;;;;;1.35;1.15;;;;;;;;;;5042777;28;20025;-81
2023/07/28 04:25:14;;;;;;;1.00;1.00;;;;;;;;;;5043200;28;20179;-79
2023/07/28 04:27:40;;;;;;;1.20;1.10;;;;;;;;;;5044193;28;20064;-80
2023/07/28 04:30:06;;;;;;;0.90;0.90;;;;;;;;;;5043436;28;20155;-80
2023/07/28 04:32:32;;;;;;;1.27;1.17;;;;;;;;;;5044672;28;20098;-78
2023/07/28 04:34:59;;;;;;;0.85;0.85;;;;;;;;;;5046934;28;20387;-79
2023/07/28 04:37:25;;;;;;;1.05;0.98;;;;;;;;;;5047618;28;20025;-78
2023/07/28 04:39:51;;;;;;;0.90;0.90;;;;;;;;;;5049321;28;20025;-78
2023/07/28 04:42:17;;;;;;;1.25;1.13;;;;;;;;;;5053770;28;20060;-78
2023/07/28 04:44:44;;;;;;;1.50;0.90;;;;;;;;;;5053765;28;20036;-80
2023/07/28 04:47:10;;;;;;;1.02;1.00;;;;;;;;;;5050401;28;20025;-81
2023/07/28 04:49:36;;;;;;;0.90;0.85;;;;;;;;;;5053314;28;20030;-77
2023/07/28 04:52:03;;;;;;;0.90;0.90;;;;;;;;;;5050458;28;20041;-80
2023/07/28 04:54:29;;;;;;;0.90;0.90;;;;;;;;;;5047415;28;20044;-79
2023/07/28 04:56:55;;;;;;;0.93;0.93;;;;;;;;;;5048864;28;20607;-79
2023/07/28 04:59:21;;;;;;;1.33;1.23;;;;;;;;;;5050080;28;20311;-76
2023/07/28 05:01:47;;;;;;;1.10;1.10;;;;;;;;;;5046378;28;20042;-78
2023/07/28 05:04:13;;;;;;;1.00;1.00;;;;;;;;;;5045363;28;20040;-78
2023/07/28 05:06:39;;;;;;;0.95;0.95;;;;;;;;;;5045928;28;20028;-78
2023/07/28 05:09:05;;;;;;;1.05;0.95;;;;;;;;;;5047041;28;20014;-78
2023/07/28 05:11:31;;;;;;;1.23;1.00;;;;;;;;;;5044628;28;20025;-78
2023/07/28 05:13:58;;;;;;;1.15;1.05;;;;;;;;;;5044485;28;20029;-76
2023/07/28 05:16:24;;;;;;;1.00;1.00;;;;;;;;;;5043993;28;20048;-79
2023/07/28 05:18:50;;;;;;;1.48;1.38;;;;;;;;;;5045760;28;20037;-77
2023/07/28 05:21:16;;;;;;;1.30;1.20;;;;;;;;;;5045125;28;20033;-78
2023/07/28 05:23:42;;;;;;;1.52;1.30;;;;;;;;;;5043918;28;20017;-79
2023/07/28 05:26:08;;;;;;;1.40;1.30;;;;;;;;;;5043338;28;20029;-79
2023/07/28 05:28:35;;;;;;;0.95;0.95;;;;;;;;;;5044940;28;20029;-79
2023/07/28 05:31:08;;;;;;;1.00;1.00;;;;;;;;;;5043668;28;20037;-79
2023/07/28 05:33:34;;;;;;;1.00;1.00;;;;;;;;;;5044088;28;20021;-79
2023/07/28 05:36:03;;;;;;;1.05;1.00;;;;;;;;;;5043105;28;20375;-79
2023/07/28 05:38:30;;;;;;;1.27;1.20;;;;;;;;;;5044865;28;20017;-81
2023/07/28 05:41:00;;;;;;;1.20;1.20;;;;;;;;;;5052540;28;20089;-79
2023/07/28 05:43:27;;;;;;;2.28;1.30;;;;;;;;;;5052658;28;20018;-76
2023/07/28 05:45:53;;;;;;;1.02;1.00;;;;;;;;;;5048650;28;20071;-78
2023/07/28 05:48:19;;;;;;;1.10;1.10;;;;;;;;;;5044493;28;20025;-78
2023/07/28 05:50:45;;;;;;;1.70;1.00;;;;;;;;;;5044187;28;20412;-78
2023/07/28 05:53:11;;;;;;;1.40;1.30;;;;;;;;;;5044851;28;20025;-79
2023/07/28 05:55:38;;;;;;;1.23;1.13;;;;;;;;;;5041741;28;20028;-78
2023/07/28 05:58:04;;;;;;;1.30;1.20;;;;;;;;;;5041146;28;20069;-77
2023/07/28 06:00:30;;;;;;;1.35;1.25;;;;;;;;;;5041001;28;20068;-79
2023/07/28 06:02:56;;;;;;;1.45;1.35;;;;;;;;;;5040142;28;20049;-79
2023/07/28 06:05:22;;;;;;;1.10;1.00;;;;;;;;;;5042188;28;20017;-78
2023/07/28 06:07:48;;;;;;;1.33;1.23;;;;;;;;;;5040411;28;20041;-78
2023/07/28 06:10:14;;;;;;;1.23;1.15;;;;;;;;;;5042684;28;20029;-79
2023/07/28 06:12:40;;;;;;;1.13;1.02;;;;;;;;;;5042467;28;20052;-79
2023/07/28 06:15:07;;;;;;;0.95;0.95;;;;;;;;;;5042479;28;20029;-78
2023/07/28 06:17:34;;;;;;;1.10;1.10;;;;;;;;;;5042891;28;20095;-79
2023/07/28 06:20:00;;;;;;;1.23;1.13;;;;;;;;;;5044857;28;20030;-77
2023/07/28 06:22:26;;;;;;;1.73;1.42;;;;;;;;;;5054904;28;20038;-78
2023/07/28 06:24:52;;;;;;;1.20;1.10;;;;;;;;;;5053294;28;20017;-76
2023/07/28 06:27:19;;;;;;;1.02;0.98;;;;;;;;;;5050530;28;20120;-77
2023/07/28 06:29:45;;;;;;;1.02;1.00;;;;;;;;;;5054239;28;20017;-79
2023/07/28 06:32:11;;;;;;;1.58;1.48;;;;;;;;;;5052731;28;20060;-77
2023/07/28 06:34:37;;;;;;;1.40;1.30;;;;;;;;;;5055771;28;20077;-77
2023/07/28 06:37:03;;;;;;;2.65;1.90;;;;;;;;;;5055239;28;20097;-76
2023/07/28 06:39:30;;;;;;;1.80;1.67;;;;;;;;;;5056025;28;20113;-77
2023/07/28 06:41:56;;;;;;;1.52;1.42;;;;;;;;;;5056650;28;20048;-77
2023/07/28 06:44:22;;;;;;;1.50;1.40;;;;;;;;;;5052531;28;20040;-76
2023/07/28 06:46:48;;;;;;;1.40;1.15;;;;;;;;;;5055801;28;20006;-78
2023/07/28 06:49:14;;;;;;;1.27;1.17;;;;;;;;;;5055330;28;20029;-77
2023/07/28 06:51:40;;;;;;;1.40;1.30;;;;;;;;;;5055791;28;20029;-77
2023/07/28 06:54:11;;;;;;;1.63;1.52;;;;;;;;;;5054784;28;20020;-76
2023/07/28 06:56:37;;;;;;;1.42;1.33;;;;;;;;;;5053994;28;20032;-76
2023/07/28 06:59:03;;;;;;;1.10;1.10;;;;;;;;;;5056137;28;20024;-77
2023/07/28 07:01:30;;;;;;;1.17;1.17;;;;;;;;;;5054580;28;20022;-78
2023/07/28 07:03:57;;;;;;;1.30;1.20;;;;;;;;;;5047798;28;20021;-77
2023/07/28 07:06:23;;;;;;;1.25;1.25;;;;;;;;;;5051548;28;20026;-77
2023/07/28 07:08:49;;;;;;;1.52;1.42;;;;;;;;;;5044521;28;20171;-77
2023/07/28 07:11:15;;;;;;;1.20;1.20;;;;;;;;;;5046879;28;20028;-79
2023/07/28 07:13:41;;;;;;;1.35;1.30;;;;;;;;;;5052467;28;20021;-77
2023/07/28 07:16:15;;;;;;;1.30;1.20;;;;;;;;;;5055734;28;20029;-78
2023/07/28 07:18:41;;;;;;;1.23;1.23;;;;;;;;;;5054319;28;20089;-76
2023/07/28 07:21:11;;;;;;;1.20;1.20;;;;;;;;;;5054395;28;20032;-78
2023/07/28 07:23:37;;;;;;;1.35;1.17;;;;;;;;;;5054962;28;20010;-77
2023/07/28 07:26:04;;;;;;;1.60;1.50;;;;;;;;;;5053717;28;20148;-76
2023/07/28 07:28:30;;;;;;;1.40;1.30;;;;;;;;;;5054601;28;20037;-77
2023/07/28 07:30:56;;;;;;;1.45;1.35;;;;;;;;;;5053745;28;20042;-76
2023/07/28 07:33:22;;;;;;;1.45;1.35;;;;;;;;;;5053745;28;20040;-78
2023/07/28 07:35:48;;;;;;;1.50;1.40;;;;;;;;;;5054080;28;20030;-77
2023/07/28 07:38:14;;;;;;;1.58;1.48;;;;;;;;;;5054654;28;20077;-77
2023/07/28 07:40:40;;;;;;;1.42;1.33;;;;;;;;;;5055736;28;20093;-77
2023/07/28 07:43:06;;;;;;;1.92;1.73;;;;;;;;;;5055759;28;20029;-77
2023/07/28 07:45:33;;;;;;;1.60;1.50;;;;;;;;;;5054963;28;20059;-78
2023/07/28 07:47:59;;;;;;;1.70;1.60;;;;;;;;;;5053868;28;20057;-77
2023/07/28 07:50:25;;;;;;;1.98;1.70;;;;;;;;;;5055215;28;20040;-79
2023/07/28 07:52:51;;;;;;;1.65;1.58;;;;;;;;;;5054096;28;20018;-77
2023/07/28 07:55:18;;;;;;;2.03;1.80;;;;;;;;;;5054079;28;20018;-78
2023/07/28 07:57:44;;;;;;;1.85;1.70;;;;;;;;;;5055649;28;20028;-78
2023/07/28 08:00:10;;;;;;;2.55;1.77;;;;;;;;;;5055211;28;20030;-76
2023/07/28 08:02:37;;;;;;;1.80;1.67;;;;;;;;;;5053553;28;20025;-78
2023/07/28 08:05:05;;;;;;;1.83;1.73;;;;;;;;;;5048503;28;20097;-77
2023/07/28 08:07:31;;;;;;;1.95;1.77;;;;;;;;;;5049912;28;20033;-78
2023/07/28 08:09:58;;;;;;;2.13;2.03;;;;;;;;;;5052268;28;20030;-78
2023/07/28 08:12:24;;;;;;;1.70;1.60;;;;;;;;;;5049114;28;20045;-78
2023/07/28 08:14:50;;;;;;;1.95;1.77;;;;;;;;;;5052930;28;20106;-79
2023/07/28 08:17:17;;;;;;;2.75;2.00;;;;;;;;;;5053499;28;20040;-78
2023/07/28 08:19:44;;;;;;;3.22;1.88;;;;;;;;;;5050660;28;20037;-79
2023/07/28 08:22:11;;;;;;;1.70;1.60;;;;;;;;;;5051851;28;20041;-79
2023/07/28 08:24:38;;;;;;;2.40;2.20;;;;;;;;;;5053786;28;20036;-81
2023/07/28 08:27:04;;;;;;;2.60;2.40;;;;;;;;;;5050155;28;20026;-79
2023/07/28 08:29:30;;;;;;;3.30;1.80;;;;;;;;;;5047628;28;20036;-78
2023/07/28 08:31:56;;;;;;;1.75;1.65;;;;;;;;;;5049228;28;20052;-80
2023/07/28 08:34:22;;;;;;;2.40;2.20;;;;;;;;;;5048367;28;20122;-79
2023/07/28 08:36:48;;;;;;;2.50;2.20;;;;;;;;;;5044472;28;20025;-77
2023/07/28 08:39:15;;;;;;;3.42;2.13;;;;;;;;;;5043023;28;20022;-76
2023/07/28 08:41:41;;;;;;;2.03;1.60;;;;;;;;;;5041478;28;20066;-78
2023/07/28 08:44:07;;;;;;;2.45;2.25;;;;;;;;;;5046319;28;20056;-78
2023/07/28 08:46:37;;;;;;;2.88;2.35;;;;;;;;;;5040621;28;20034;-77
2023/07/28 08:49:03;;;;;;;2.53;1.80;;;;;;;;;;5044132;28;20108;-77
2023/07/28 08:51:29;;;;;;;2.00;1.90;;;;;;;;;;5043465;28;20396;-78
2023/07/28 08:53:55;;;;;;;2.85;2.10;;;;;;;;;;5043436;28;20038;-78
2023/07/28 08:56:21;;;;;;;2.05;1.88;;;;;;;;;;5042478;28;20044;-76
2023/07/28 08:58:48;;;;;;;1.92;1.83;;;;;;;;;;5042279;28;20035;-76
2023/07/28 09:01:14;;;;;;;2.30;2.10;;;;;;;;;;5041472;28;20025;-78
2023/07/28 09:03:41;;;;;;;2.22;2.13;;;;;;;;;;5041020;28;20025;-78
2023/07/28 09:06:11;;;;;;;2.33;1.77;;;;;;;;;;5043236;28;20045;-78
2023/07/28 09:08:37;;;;;;;2.47;2.28;;;;;;;;;;5044743;28;20040;-79
2023/07/28 09:11:05;;;;;;;2.97;2.50;;;;;;;;;;5044103;28;20133;-78
2023/07/28 09:13:39;;;;;;;2.15;2.00;;;;;;;;;;5045058;28;20350;-78
2023/07/28 09:16:05;;;;;;;2.53;2.33;;;;;;;;;;5047190;28;20055;-78
2023/07/28 09:18:31;;;;;;;2.25;2.05;;;;;;;;;;5045915;28;20060;-78
2023/07/28 09:20:57;;;;;;;2.60;2.25;;;;;;;;;;5045551;28;20040;-78
2023/07/28 09:23:30;;;;;;;2.72;2.40;;;;;;;;;;5041618;28;20033;-77
2023/07/28 09:26:01;;;;;;;3.60;2.45;;;;;;;;;;5044229;28;20033;-79
2023/07/28 09:28:38;;;;;;;2.47;2.28;;;;;;;;;;5041415;28;20307;-78
2023/07/28 09:31:05;;;;;;;2.50;2.22;;;;;;;;;;5042550;28;20108;-77
2023/07/28 09:33:32;;;;;;;2.30;2.05;;;;;;;;;;5044328;28;20088;-78
2023/07/28 09:36:07;;;;;;;2.50;2.30;;;;;;;;;;5041594;28;20025;-77
2023/07/28 09:38:36;;;;;;;4.15;2.22;;;;;;;;;;5042903;28;20029;-76
2023/07/28 09:41:07;;;;;;;2.70;2.50;;;;;;;;;;5029857;28;20102;-77
2023/07/28 09:43:33;;;;;;;2.97;2.33;;;;;;;;;;5040673;28;20025;-79
2023/07/28 09:46:00;;;;;;;5.03;2.25;;;;;;;;;;5042728;28;20029;-80
2023/07/28 09:48:27;;;;;;;2.58;2.25;;;;;;;;;;5043788;28;20022;-78
2023/07/28 09:50:54;;;;;;;2.28;2.08;;;;;;;;;;5041863;28;20471;-79
2023/07/28 09:53:21;;;;;;;2.42;1.77;;;;;;;;;;5041724;28;20033;-78
2023/07/28 09:55:48;;;;;;;2.00;1.90;;;;;;;;;;5040536;28;20040;-77
2023/07/28 09:58:19;;;;;;;2.63;2.25;;;;;;;;;;5042921;28;20059;-79
2023/07/28 10:00:46;;;;;;;2.63;2.42;;;;;;;;;;5043047;28;20048;-78
2023/07/28 10:03:12;;;;;;;2.40;2.25;;;;;;;;;;5041288;28;20068;-78
2023/07/28 10:05:38;;;;;;;2.50;2.30;;;;;;;;;;5039899;28;20488;-78
2023/07/28 10:08:05;;;;;;;2.63;2.42;;;;;;;;;;5041728;28;20029;-77
2023/07/28 10:10:32;;;;;;;2.60;2.40;;;;;;;;;;5037890;28;20033;-78
2023/07/28 10:12:59;;;;;;;1.95;1.85;;;;;;;;;;5039179;28;20033;-79
2023/07/28 10:15:29;;;;;;;2.28;2.08;;;;;;;;;;5040157;28;20064;-78
2023/07/28 10:17:59;;;;;;;2.72;2.17;;;;;;;;;;5039476;28;20363;-78
2023/07/28 10:20:28;;;;;;;2.72;2.53;;;;;;;;;;5038701;28;20022;-77
2023/07/28 10:23:02;;;;;;;4.63;2.88;;;;;;;;;;5038729;28;20045;-79
2023/07/28 10:25:28;;;;;;;3.03;2.72;;;;;;;;;;5040233;28;20025;-77
2023/07/28 10:27:54;;;;;;;2.70;2.50;;;;;;;;;;5038619;28;20017;-81
2023/07/28 10:30:20;;;;;;;2.97;2.50;;;;;;;;;;5037764;28;20101;-79
2023/07/28 10:32:51;;;;;;;2.10;2.00;;;;;;;;;;5039788;28;20497;-79
2023/07/28 10:35:25;;;;;;;2.50;2.35;;;;;;;;;;5040068;28;20025;-77
2023/07/28 10:37:51;;;;;;;3.05;2.30;;;;;;;;;;5038512;28;20033;-76
2023/07/28 10:40:24;;;;;;;2.50;2.30;;;;;;;;;;5039083;28;20064;-75
2023/07/28 10:42:51;;;;;;;2.22;2.00;;;;;;;;;;5038744;28;20029;-78
2023/07/28 10:45:18;;;;;;;3.05;2.35;;;;;;;;;;5040053;28;20033;-76
2023/07/28 10:47:44;;;;;;;2.33;2.15;;;;;;;;;;5039997;28;20524;-76
2023/07/28 10:50:11;;;;;;;3.08;2.38;;;;;;;;;;5039596;28;20390;-78
2023/07/28 10:52:43;;;;;;;2.72;2.33;;;;;;;;;;5041125;28;20025;-77
2023/07/28 10:55:14;;;;;;;2.70;2.50;;;;;;;;;;5042802;28;20033;-77
2023/07/28 10:57:42;;;;;;;3.70;2.97;;;;;;;;;;5041070;28;20045;-77
2023/07/28 11:00:08;;;;;;;2.30;2.20;;;;;;;;;;5041553;28;20026;-76
2023/07/28 11:02:37;;;;;;;3.30;2.55;;;;;;;;;;5039818;28;20025;-77
2023/07/28 11:05:19;;;;;;;2.60;2.40;;;;;;;;;;5039858;28;20033;-78
2023/07/28 11:07:45;;;;;;;2.85;2.55;;;;;;;;;;5031948;28;21649;-77
2023/07/28 11:10:15;;;;;;;2.90;2.70;;;;;;;;;;5035662;28;20174;-78
2023/07/28 11:12:52;;;;;;;3.95;3.00;;;;;;;;;;5034699;28;20394;-79
2023/07/28 11:15:21;;;;;;;2.50;2.30;;;;;;;;;;5033666;28;20463;-77
2023/07/28 11:17:49;;;;;;;2.55;2.35;;;;;;;;;;5036325;28;20033;-77
2023/07/28 11:20:23;;;;;;;2.72;2.20;;;;;;;;;;5037324;28;20112;-78
2023/07/28 11:23:05;;;;;;;2.90;2.42;;;;;;;;;;5035798;28;20029;-78
2023/07/28 11:25:32;;;;;;;4.30;2.65;;;;;;;;;;5034980;28;20022;-78
2023/07/28 11:28:01;;;;;;;2.60;2.40;;;;;;;;;;5035566;28;20025;-78
2023/07/28 11:30:27;;;;;;;4.30;2.22;;;;;;;;;;5045011;28;20022;-79
2023/07/28 11:32:53;;;;;;;5.63;2.17;;;;;;;;;;5050572;28;20025;-78
2023/07/28 11:35:21;;;;;;;2.65;2.42;;;;;;;;;;5039102;28;20028;-79
2023/07/28 11:37:50;;;;;;;3.50;2.53;;;;;;;;;;5034038;28;20093;-77
2023/07/28 11:40:18;;;;;;;2.58;2.38;;;;;;;;;;5036503;28;20021;-76
2023/07/28 11:42:48;;;;;;;2.35;2.15;;;;;;;;;;5036227;28;20029;-75
2023/07/28 11:45:15;;;;;;;4.80;2.97;;;;;;;;;;5034925;28;20017;-78
2023/07/28 11:48:00;;;;;;;3.22;2.70;;;;;;;;;;5034392;28;20021;-78
2023/07/28 11:50:27;;;;;;;2.53;2.33;;;;;;;;;;5023211;28;20030;-79
2023/07/28 11:52:54;;;;;;;2.22;2.00;;;;;;;;;;5034345;28;20105;-79
2023/07/28 11:55:21;;;;;;;3.17;2.88;;;;;;;;;;5035763;28;20047;-79
2023/07/28 11:57:48;;;;;;;2.17;2.00;;;;;;;;;;5034710;28;20025;-78
2023/07/28 12:00:16;;;;;;;5.40;2.47;;;;;;;;;;5036463;28;20119;-77
2023/07/28 12:02:43;;;;;;;3.72;2.40;;;;;;;;;;5036344;28;20103;-78
2023/07/28 12:05:12;;;;;;;2.53;2.33;;;;;;;;;;5046839;28;20029;-77
2023/07/28 12:07:39;;;;;;;3.60;2.50;;;;;;;;;;5049194;28;20026;-78
2023/07/28 12:10:08;;;;;;;6.43;2.83;;;;;;;;;;5039934;28;20056;-78
2023/07/28 12:12:44;;;;;;;2.97;2.70;;;;;;;;;;5036550;28;20044;-79
2023/07/28 12:15:20;;;;;;;4.45;2.80;;;;;;;;;;5034511;28;20037;-76
2023/07/28 12:18:06;;;;;;;2.75;2.55;;;;;;;;;;5033923;28;20029;-78
2023/07/28 12:20:39;;;;;;;3.47;2.42;;;;;;;;;;5034547;28;20394;-78
2023/07/28 12:23:05;;;;;;;2.42;2.28;;;;;;;;;;5034363;28;20022;-79
2023/07/28 12:25:32;;;;;;;2.75;2.50;;;;;;;;;;5034035;28;20097;-78
2023/07/28 12:27:58;;;;;;;2.75;2.40;;;;;;;;;;5035529;28;20037;-79
2023/07/28 12:30:25;;;;;;;2.63;2.42;;;;;;;;;;5035759;28;20025;-79
2023/07/28 12:32:51;;;;;;;2.50;2.30;;;;;;;;;;5034700;28;20331;-78
2023/07/28 12:35:17;;;;;;;3.10;2.30;;;;;;;;;;5032866;28;20037;-77
2023/07/28 12:37:43;;;;;;;2.70;2.50;;;;;;;;;;5031341;28;20078;-78
2023/07/28 12:40:10;;;;;;;2.90;2.45;;;;;;;;;;5034210;28;20033;-77
2023/07/28 12:42:36;;;;;;;2.70;2.47;;;;;;;;;;5034592;28;20022;-79
2023/07/28 12:45:04;;;;;;;2.83;2.53;;;;;;;;;;5035119;28;20037;-79
2023/07/28 12:47:30;;;;;;;2.55;2.33;;;;;;;;;;5034787;28;20033;-78
2023/07/28 12:49:56;;;;;;;4.28;2.80;;;;;;;;;;5034085;28;20026;-79
2023/07/28 12:52:23;;;;;;;2.30;2.10;;;;;;;;;;5033648;28;20029;-79
2023/07/28 12:54:49;;;;;;;2.53;2.33;;;;;;;;;;5035222;28;20030;-81
2023/07/28 12:57:15;;;;;;;3.42;2.58;;;;;;;;;;5038485;28;20030;-78
2023/07/28 12:59:41;;;;;;;6.38;2.58;;;;;;;;;;5038497;28;20029;-80
2023/07/28 13:02:07;;;;;;;2.58;2.38;;;;;;;;;;5039996;28;20026;-79
2023/07/28 13:04:33;;;;;;;3.30;2.42;;;;;;;;;;5039176;28;20318;-78
2023/07/28 13:06:59;;;;;;;2.67;2.47;;;;;;;;;;5040738;28;20033;-78
2023/07/28 13:09:25;;;;;;;2.15;2.05;;;;;;;;;;5036751;28;20486;-79
2023/07/28 13:11:52;;;;;;;2.30;2.10;;;;;;;;;;5038001;28;20085;-80
2023/07/28 13:14:18;;;;;;;2.60;2.40;;;;;;;;;;5037664;28;20139;-79
2023/07/28 13:16:44;;;;;;;2.00;1.90;;;;;;;;;;5036799;28;20048;-78
2023/07/28 13:19:10;;;;;;;2.78;2.50;;;;;;;;;;5036554;28;20405;-77
2023/07/28 13:21:36;;;;;;;3.03;2.47;;;;;;;;;;5036543;28;20042;-78
2023/07/28 13:24:03;;;;;;;2.95;2.67;;;;;;;;;;5035105;28;20032;-78
2023/07/28 13:26:29;;;;;;;2.35;2.17;;;;;;;;;;5036660;28;20021;-78
2023/07/28 13:28:58;;;;;;;3.13;2.50;;;;;;;;;;5036085;28;20428;-77
2023/07/28 13:31:27;;;;;;;3.05;2.75;;;;;;;;;;5037333;28;20028;-78
2023/07/28 13:33:53;;;;;;;2.58;2.28;;;;;;;;;;5038052;28;20037;-80
2023/07/28 13:36:19;;;;;;;2.65;2.47;;;;;;;;;;5036454;28;20025;-78
2023/07/28 13:38:45;;;;;;;2.35;2.13;;;;;;;;;;5037183;28;20029;-78
2023/07/28 13:41:12;;;;;;;2.88;2.42;;;;;;;;;;5040921;28;20055;-79
2023/07/28 13:43:40;;;;;;;3.15;2.38;;;;;;;;;;5046814;28;20040;-80
2023/07/28 13:46:06;;;;;;;2.75;2.45;;;;;;;;;;5048962;28;20517;-79
2023/07/28 13:48:32;;;;;;;2.63;2.42;;;;;;;;;;5053147;28;20039;-81
2023/07/28 13:50:58;;;;;;;2.72;2.40;;;;;;;;;;5054065;28;20055;-80
2023/07/28 13:53:25;;;;;;;2.47;2.28;;;;;;;;;;5057536;28;20021;-81
2023/07/28 13:55:51;;;;;;;4.47;2.47;;;;;;;;;;5056886;28;20018;-80
2023/07/28 13:58:17;;;;;;;2.30;2.08;;;;;;;;;;5055049;28;20041;-81
2023/07/28 14:00:44;;;;;;;3.20;2.38;;;;;;;;;;5055618;28;20071;-81
2023/07/28 14:03:10;;;;;;;4.35;2.50;;;;;;;;;;5054260;28;20288;-80
2023/07/28 14:05:36;;;;;;;2.65;2.45;;;;;;;;;;5053388;28;20029;-80
2023/07/28 14:08:03;;;;;;;4.28;2.70;;;;;;;;;;5052508;28;20033;-79
2023/07/28 14:10:29;;;;;;;2.75;2.55;;;;;;;;;;5051095;28;20036;-79
2023/07/28 14:12:55;;;;;;;3.90;2.72;;;;;;;;;;5053602;28;20055;-81
2023/07/28 14:15:21;;;;;;;2.95;2.63;;;;;;;;;;5048800;28;20072;-80
2023/07/28 14:17:47;;;;;;;2.45;2.25;;;;;;;;;;5051509;28;20029;-80
2023/07/28 14:20:13;;;;;;;2.08;1.98;;;;;;;;;;5043173;28;20045;-79
2023/07/28 14:22:39;;;;;;;2.67;2.47;;;;;;;;;;5038100;28;20030;-79
2023/07/28 14:25:05;;;;;;;2.33;2.13;;;;;;;;;;5045750;28;20026;-80
2023/07/28 14:27:32;;;;;;;2.72;2.50;;;;;;;;;;5048022;28;20123;-79
2023/07/28 14:29:58;;;;;;;2.53;2.33;;;;;;;;;;5040641;28;20021;-81
2023/07/28 14:32:24;;;;;;;3.38;2.13;;;;;;;;;;5045010;28;20450;-79
2023/07/28 14:34:50;;;;;;;2.20;2.10;;;;;;;;;;5042519;28;20227;-80
2023/07/28 14:37:16;;;;;;;2.63;2.33;;;;;;;;;;5046045;28;20041;-80
2023/07/28 14:39:42;;;;;;;2.60;2.40;;;;;;;;;;5049758;28;20017;-80
2023/07/28 14:42:08;;;;;;;4.15;2.60;;;;;;;;;;5053766;28;20017;-80